sensor_id;sensor_type;location;lat;lon;timestamp;pressure;altitude;pressure_sealevel;temperature;humidity
15558;BME280;7880;50.110;9.372;2023-04-01T00:01:57;8.12254773574532;;;8.0;100.0
15558;BME280;7880;50.110;9.372;2023-04-01T00:06:57;8.12758989939466;;;8.062;100.0
15558;BME280;7880;50.110;9.372;2023-04-01T00:11:55;8.132632063335041;;;8.062;100.0
15558;BME280;7880;50.110;9.372;2023-04-01T00:17:02;8.082210437027971;;;8.0;100.0
15558;BME280;7880;50.110;9.372;2023-04-01T00:21:17;8.092294759961078;;;8.0;100.0
15558;BME280;7880;50.110;9.372;2023-04-01T00:26:21;8.072126115259016;;;8.0;100.0
15558;BME280;7880;50.110;9.372;2023-04-01T00:31:25;8.087252598349005;;;8.0;100.0
15558;BME280;7880;50.110;9.372;2023-04-01T00:36:29;8.082210437027971;;;8.0;100.0
15558;BME280;7880;50.110;9.372;2023-04-01T00:41:33;8.082210437027971;;;8.062;100.0
15558;BME280;7880;50.110;9.372;2023-04-01T00:46:37;8.117505572387017;;;8.062;100.0
15558;BME280;7880;50.110;9.372;2023-04-01T00:51:42;8.112463409319753;;;8.062;100.0
15558;BME280;7880;50.110;9.372;2023-04-01T00:56:48;8.117505572387017;;;8.0;100.0
15558;BME280;7880;50.110;9.372;2023-04-01T01:01:56;8.077168275997973;;;8.0;100.0
15558;BME280;7880;50.110;9.372;2023-04-01T01:07:09;8.0469153159298;;;8.0;100.0
15558;BME280;7880;50.110;9.372;2023-04-01T01:12:08;8.062041794654215;;;8.0;100.0
15558;BME280;7880;50.110;9.372;2023-04-01T01:17:13;7.996493739099241;;;7.937;100.0
15558;BME280;7880;50.110;9.372;2023-04-01T01:22:25;8.001535895472625;;;7.875;100.0
15558;BME280;7880;50.110;9.372;2023-04-01T01:27:22;7.956156498589553;;;7.875;100.0
15558;BME280;7880;50.110;9.372;2023-04-01T01:32:36;7.941030038200552;;;7.875;100.0
15558;BME280;7880;50.110;9.372;2023-04-01T01:37:27;7.895650672749616;;;7.812;100.0
15558;BME280;7880;50.110;9.372;2023-04-01T01:42:31;7.890608522488037;;;7.812;100.0
15558;BME280;7880;50.110;9.372;2023-04-01T01:47:35;7.951114344835514;;;7.812;100.0
15558;BME280;7880;50.110;9.372;2023-04-01T01:52:37;7.809934157883982;;;7.75;100.0
15558;BME280;7880;50.110;9.372;2023-04-01T01:57:42;7.8149763034889475;;;7.75;100.0
15558;BME280;7880;50.110;9.372;2023-04-01T02:02:48;7.809934157883982;;;7.75;100.0
15558;BME280;7880;50.110;9.372;2023-04-01T02:08:01;7.7897655783744995;;;7.75;100.0
15558;BME280;7880;50.110;9.372;2023-04-01T02:13:01;7.809934157883982;;;7.75;100.0
15558;BME280;7880;50.110;9.372;2023-04-01T02:18:03;7.784723434224725;;;7.687;100.0
15558;BME280;7880;50.110;9.372;2023-04-01T02:23:10;7.87548207344953;;;7.75;100.0
15558;BME280;7880;50.110;9.372;2023-04-01T02:28:13;7.759512717841426;;;7.687;100.0
15558;BME280;7880;50.110;9.372;2023-04-01T02:33:17;7.820018449384952;;;7.75;100.0
15558;BME280;7880;50.110;9.372;2023-04-01T02:38:21;7.840187035879353;;;7.75;100.0
15558;BME280;7880;50.110;9.372;2023-04-01T02:43:36;7.820018449384952;;;7.75;100.0
15558;BME280;7880;50.110;9.372;2023-04-01T02:48:32;7.830102742050076;;;7.812;100.0
15558;BME280;7880;50.110;9.372;2023-04-01T02:53:35;7.830102742050076;;;7.812;100.0
15558;BME280;7880;50.110;9.372;2023-04-01T02:58:39;7.850271330872784;;;7.812;100.0
15558;BME280;7880;50.110;9.372;2023-04-01T03:03:52;7.850271330872784;;;7.812;100.0
15558;BME280;7880;50.110;9.372;2023-04-01T03:08:49;7.820018449384952;;;7.812;100.0
15558;BME280;7880;50.110;9.372;2023-04-01T03:13:53;7.930945732729742;;;7.875;100.0
15558;BME280;7880;50.110;9.372;2023-04-01T03:19:00;7.8704399243521035;;;7.875;100.0
15558;BME280;7880;50.110;9.372;2023-04-01T03:24:03;7.850271330872784;;;7.812;100.0
15558;BME280;7880;50.110;9.372;2023-04-01T03:29:10;7.865397775545716;;;7.812;100.0
15558;BME280;7880;50.110;9.372;2023-04-01T03:34:12;7.809934157883982;;;7.75;100.0
15558;BME280;7880;50.110;9.372;2023-04-01T03:39:18;7.749428433325375;;;7.687;100.0
15558;BME280;7880;50.110;9.372;2023-04-01T03:44:22;7.759512717841426;;;7.687;100.0
15558;BME280;7880;50.110;9.372;2023-04-01T03:49:24;7.729259867785731;;;7.625;100.0
15558;BME280;7880;50.110;9.372;2023-04-01T03:54:28;7.668754199106479;;;7.625;100.0
15558;BME280;7880;50.110;9.372;2023-04-01T03:59:36;7.668754199106479;;;7.562;100.0
15558;BME280;7880;50.110;9.372;2023-04-01T04:04:39;7.69396488929633;;;7.625;100.0
15558;BME280;7880;50.110;9.372;2023-04-01T04:09:43;7.62337497510016;;;7.562;100.0
15558;BME280;7880;50.110;9.372;2023-04-01T04:14:47;7.628417109936708;;;7.562;100.0
15558;BME280;7880;50.110;9.372;2023-04-01T04:19:59;7.613290706300177;;;7.562;100.0
15558;BME280;7880;50.110;9.372;2023-04-01T04:24:54;7.613290706300177;;;7.562;100.0
15558;BME280;7880;50.110;9.372;2023-04-01T04:29:59;7.603206438664347;;;7.5;100.0
15558;BME280;7880;50.110;9.372;2023-04-01T04:35:03;7.567911511106649;;;7.5;100.0
15558;BME280;7880;50.110;9.372;2023-04-01T04:40:08;7.567911511106649;;;7.5;100.0
15558;BME280;7880;50.110;9.372;2023-04-01T04:45:13;7.58808003939339;;;7.5;100.0
15558;BME280;7880;50.110;9.372;2023-04-01T04:50:15;7.462026813998818;;;7.437;100.0
15558;BME280;7880;50.110;9.372;2023-04-01T04:55:25;7.572953642741777;;;7.437;100.0
15558;BME280;7880;50.110;9.372;2023-04-01T05:00:24;7.456984688766534;;;7.437;100.0
15558;BME280;7880;50.110;9.372;2023-04-01T05:05:28;7.5275744685030075;;;7.437;100.0
15558;BME280;7880;50.110;9.372;2023-04-01T05:10:33;7.512448082328774;;;7.437;100.0
15558;BME280;7880;50.110;9.372;2023-04-01T05:15:38;7.5074059541861065;;;7.437;100.0
15558;BME280;7880;50.110;9.372;2023-04-01T05:20:49;7.51749021076248;;;7.437;100.0
15558;BME280;7880;50.110;9.372;2023-04-01T05:25:33;7.477153191441903;;;7.437;100.0
15558;BME280;7880;50.110;9.372;2023-04-01T05:30:40;7.472111065336503;;;7.437;100.0
15558;BME280;7880;50.110;9.372;2023-04-01T05:35:41;7.502363826334476;;;7.437;100.0
15558;BME280;7880;50.110;9.372;2023-04-01T05:40:51;7.51749021076248;;;7.375;100.0
15558;BME280;7880;50.110;9.372;2023-04-01T05:45:51;7.487237444525817;;;7.437;100.0
15558;BME280;7880;50.110;9.372;2023-04-01T05:50:54;7.487237444525817;;;7.437;100.0
15558;BME280;7880;50.110;9.372;2023-04-01T05:56:02;7.5275744685030075;;;7.437;100.0
15558;BME280;7880;50.110;9.372;2023-04-01T06:01:05;7.5275744685030075;;;7.437;100.0
15558;BME280;7880;50.110;9.372;2023-04-01T06:06:13;7.572953642741777;;;7.5;100.0
15558;BME280;7880;50.110;9.372;2023-04-01T06:11:22;7.59312217219267;;;7.5;100.0
15558;BME280;7880;50.110;9.372;2023-04-01T06:16:22;7.456984688766534;;;7.437;100.0
15558;BME280;7880;50.110;9.372;2023-04-01T06:21:38;7.487237444525817;;;7.437;100.0
15558;BME280;7880;50.110;9.372;2023-04-01T06:26:30;7.451942563825287;;;7.375;100.0
15558;BME280;7880;50.110;9.372;2023-04-01T06:31:44;7.451942563825287;;;7.375;100.0
15558;BME280;7880;50.110;9.372;2023-04-01T06:36:45;7.477153191441903;;;7.437;100.0
15558;BME280;7880;50.110;9.372;2023-04-01T06:42:02;7.5074059541861065;;;7.437;100.0
15558;BME280;7880;50.110;9.372;2023-04-01T06:46:48;7.51749021076248;;;7.437;100.0
15558;BME280;7880;50.110;9.372;2023-04-01T06:51:56;7.5275744685030075;;;7.437;100.0
15558;BME280;7880;50.110;9.372;2023-04-01T06:57:03;7.482195317838341;;;7.375;100.0
15558;BME280;7880;50.110;9.372;2023-04-01T07:02:02;7.477153191441903;;;7.375;100.0
15558;BME280;7880;50.110;9.372;2023-04-01T07:07:12;7.502363826334476;;;7.375;100.0
15558;BME280;7880;50.110;9.372;2023-04-01T07:12:19;7.502363826334476;;;7.375;100.0
15558;BME280;7880;50.110;9.372;2023-04-01T07:17:16;7.51749021076248;;;7.437;100.0
15558;BME280;7880;50.110;9.372;2023-04-01T07:22:26;7.492279571504332;;;7.375;100.0
15558;BME280;7880;50.110;9.372;2023-04-01T07:27:24;7.497321698773885;;;7.375;100.0
15558;BME280;7880;50.110;9.372;2023-04-01T07:32:39;7.406563452450792;;;7.375;100.0
15558;BME280;7880;50.110;9.372;2023-04-01T07:37:38;7.5275744685030075;;;7.437;100.0
15558;BME280;7880;50.110;9.372;2023-04-01T07:42:44;7.451942563825287;;;7.437;100.0
15558;BME280;7880;50.110;9.372;2023-04-01T07:47:52;7.51749021076248;;;7.437;100.0
15558;BME280;7880;50.110;9.372;2023-04-01T07:52:51;7.572953642741777;;;7.5;100.0
15558;BME280;7880;50.110;9.372;2023-04-01T07:57:55;7.567911511106649;;;7.437;100.0
15558;BME280;7880;50.110;9.372;2023-04-01T08:03:09;7.577995774667943;;;7.5;100.0
15558;BME280;7880;50.110;9.372;2023-04-01T08:08:06;7.577995774667943;;;7.5;100.0
15558;BME280;7880;50.110;9.372;2023-04-01T08:13:08;7.658669925067807;;;7.562;100.0
15558;BME280;7880;50.110;9.372;2023-04-01T08:18:15;7.658669925067807;;;7.562;100.0
15558;BME280;7880;50.110;9.372;2023-04-01T08:23:18;7.648585652193288;;;7.562;100.0
15558;BME280;7880;50.110;9.372;2023-04-01T08:28:22;7.648585652193288;;;7.562;100.0
15558;BME280;7880;50.110;9.372;2023-04-01T08:33:24;7.704049167409539;;;7.625;100.0
15558;BME280;7880;50.110;9.372;2023-04-01T08:38:36;7.729259867785731;;;7.625;100.0
15558;BME280;7880;50.110;9.372;2023-04-01T08:43:54;7.699007028207416;;;7.625;100.0
15558;BME280;7880;50.110;9.372;2023-04-01T08:48:54;7.739344149973476;;;7.625;100.0
15558;BME280;7880;50.110;9.372;2023-04-01T08:53:59;7.850271330872784;;;7.687;100.0
15558;BME280;7880;50.110;9.372;2023-04-01T08:58:59;7.739344149973476;;;7.687;100.0
15558;BME280;7880;50.110;9.372;2023-04-01T09:04:05;7.860355627030367;;;7.75;100.0
15558;BME280;7880;50.110;9.372;2023-04-01T09:09:43;7.825060595571995;;;7.75;100.0
15558;BME280;7880;50.110;9.372;2023-04-01T09:14:39;8.102379084058338;;;7.937;100.0
15558;BME280;7880;50.110;9.372;2023-04-01T09:19:54;7.951114344835514;;;7.875;100.0
15558;BME280;7880;50.110;9.372;2023-04-01T09:24:47;7.96119865263463;;;7.875;100.0
15558;BME280;7880;50.110;9.372;2023-04-01T09:30:00;7.966240806970745;;;7.875;100.0
15558;BME280;7880;50.110;9.372;2023-04-01T09:34:55;8.006578052137048;;;7.937;100.0
15558;BME280;7880;50.110;9.372;2023-04-01T09:40:03;7.991451583016897;;;7.937;100.0
15558;BME280;7880;50.110;9.372;2023-04-01T09:44:59;8.178011551895178;;;8.062;100.0
15558;BME280;7880;50.110;9.372;2023-04-01T09:50:28;8.137674227566459;;;8.062;100.0
15558;BME280;7880;50.110;9.372;2023-04-01T09:55:24;8.097336921864189;;;8.062;100.0
15558;BME280;7880;50.110;9.372;2023-04-01T10:00:26;8.218348894850351;;;8.125;100.0
15558;BME280;7880;50.110;9.372;2023-04-01T10:05:39;8.167927219066769;;;8.062;100.0
15558;BME280;7880;50.110;9.372;2023-04-01T10:11:17;8.460373343736865;;;8.312;100.0
15558;BME280;7880;50.110;9.372;2023-04-01T10:16:46;8.50575300255441;;;8.312;100.0
15558;BME280;7880;50.110;9.372;2023-04-01T10:21:58;8.414993708493421;;;8.312;100.0
15558;BME280;7880;50.110;9.372;2023-04-01T10:35:02;8.445246796036372;;;8.312;100.0
15558;BME280;7880;50.110;9.372;2023-04-01T10:40:07;8.52592174737365;;;8.437;100.0
15558;BME280;7880;50.110;9.372;2023-04-01T10:45:13;8.500710817077197;;;8.437;100.0
15558;BME280;7880;50.110;9.372;2023-04-01T10:50:21;8.515837374381954;;;8.437;100.0
15558;BME280;7880;50.110;9.372;2023-04-01T10:55:19;8.616681156685809;;;8.5;100.0
15558;BME280;7880;50.110;9.372;2023-04-01T11:00:54;8.697356266347924;;;8.562;100.0
15558;BME280;7880;50.110;9.372;2023-04-01T11:05:59;8.808284663787344;;;8.687;100.0
15558;BME280;7880;50.110;9.372;2023-04-01T11:24:45;8.722567253396846;;;8.625;100.0
15558;BME280;7880;50.110;9.372;2023-04-01T11:30:06;8.677187481947476;;;8.625;100.0
15558;BME280;7880;50.110;9.372;2023-04-01T11:35:00;8.606596773216733;;;8.562;100.0
15558;BME280;7880;50.110;9.372;2023-04-01T11:40:08;8.611638964805753;;;8.5;100.0
15558;BME280;7880;50.110;9.372;2023-04-01T11:45:17;8.707440660294377;;;8.625;100.0
15558;BME280;7880;50.110;9.372;2023-04-01T11:50:21;8.677187481947476;;;8.625;100.0
15558;BME280;7880;50.110;9.372;2023-04-01T11:55:22;8.742736048274674;;;8.687;100.0
15558;BME280;7880;50.110;9.372;2023-04-01T12:00:35;8.964593099267223;;;8.875;100.0
15558;BME280;7880;50.110;9.372;2023-04-01T12:05:36;8.919213202089304;;;8.875;100.0
15558;BME280;7880;50.110;9.372;2023-04-01T12:10:39;8.989804163441296;;;8.937;100.0
15558;BME280;7880;50.110;9.372;2023-04-01T12:15:38;8.97971973689855;;;8.875;100.0
15558;BME280;7880;50.110;9.372;2023-04-01T12:20:50;8.939382042369107;;;8.937;100.0
15558;BME280;7880;50.110;9.372;2023-04-01T12:25:57;8.989804163441296;;;8.937;100.0
15558;BME280;7880;50.110;9.372;2023-04-01T12:30:53;9.040226313617314;;;8.937;100.0
15558;BME280;7880;50.110;9.372;2023-04-01T12:35:59;9.050310747144977;;;8.937;100.0
15558;BME280;7880;50.110;9.372;2023-04-01T12:41:09;9.050310747144977;;;8.937;100.0
15558;BME280;7880;50.110;9.372;2023-04-01T12:46:10;9.151155146450037;;;9.062;100.0
15558;BME280;7880;50.110;9.372;2023-04-01T12:51:20;9.171324040280888;;;9.062;100.0
15558;BME280;7880;50.110;9.372;2023-04-01T12:56:16;9.206619615689851;;;9.125;100.0
15558;BME280;7880;50.110;9.372;2023-04-01T13:02:30;9.221746295230696;;;9.125;100.0
15558;BME280;7880;50.110;9.372;2023-04-01T13:07:24;9.373013234703103;;;9.25;100.0
15558;BME280;7880;50.110;9.372;2023-04-01T13:12:34;9.292337501054863;;;9.187;100.0
15558;BME280;7880;50.110;9.372;2023-04-01T13:17:32;9.246957433619537;;;9.187;100.0
15558;BME280;7880;50.110;9.372;2023-04-01T13:22:34;9.1360284791328;;;9.062;100.0
15558;BME280;7880;50.110;9.372;2023-04-01T13:27:34;9.100732932245592;;;9.062;100.0
15558;BME280;7880;50.110;9.372;2023-04-01T13:32:47;9.12090181443491;;;9.062;100.0
15558;BME280;7880;50.110;9.372;2023-04-01T13:37:49;9.110817372758174;;;9.0;100.0
15558;BME280;7880;50.110;9.372;2023-04-01T13:42:48;9.130986257275799;;;9.0;100.0
15558;BME280;7880;50.110;9.372;2023-04-01T13:48:29;9.161239592783385;;;9.062;100.0
15558;BME280;7880;50.110;9.372;2023-04-01T13:53:33;9.1360284791328;;;9.062;100.0
15558;BME280;7880;50.110;9.372;2023-04-01T13:58:36;9.100732932245592;;;9.0;100.0
15558;BME280;7880;50.110;9.372;2023-04-01T14:03:44;9.161239592783385;;;9.062;100.0
15558;BME280;7880;50.110;9.372;2023-04-01T14:08:46;9.216704068426044;;;9.125;100.0
15558;BME280;7880;50.110;9.372;2023-04-01T14:13:46;9.196535164117813;;;9.125;100.0
15558;BME280;7880;50.110;9.372;2023-04-01T14:18:57;9.272168579284335;;;9.125;100.0
15558;BME280;7880;50.110;9.372;2023-04-01T14:23:56;9.30746419543866;;;9.187;100.0
15558;BME280;7880;50.110;9.372;2023-04-01T14:29:02;9.236872977390885;;;9.187;100.0
15558;BME280;7880;50.110;9.372;2023-04-01T14:34:28;9.216704068426044;;;9.125;100.0
15558;BME280;7880;50.110;9.372;2023-04-01T14:39:26;9.226788522326387;;;9.125;100.0
15558;BME280;7880;50.110;9.372;2023-04-01T14:44:24;9.216704068426044;;;9.125;100.0
15558;BME280;7880;50.110;9.372;2023-04-01T14:49:24;9.226788522326387;;;9.125;100.0
15558;BME280;7880;50.110;9.372;2023-04-01T14:54:31;9.272168579284335;;;9.25;100.0
15558;BME280;7880;50.110;9.372;2023-04-01T14:59:41;9.267126349569299;;;9.25;100.0
15558;BME280;7880;50.110;9.372;2023-04-01T15:04:54;9.277210809290409;;;9.187;100.0
15558;BME280;7880;50.110;9.372;2023-04-01T15:09:44;9.221746295230696;;;9.187;100.0
15558;BME280;7880;50.110;9.372;2023-04-01T15:14:54;9.246957433619537;;;9.125;100.0
15558;BME280;7880;50.110;9.372;2023-04-01T15:20:07;9.25199966217042;;;9.125;100.0
15558;BME280;7880;50.110;9.372;2023-04-01T15:25:06;9.186450713709927;;;9.125;100.0
15558;BME280;7880;50.110;9.372;2023-04-01T15:30:16;9.186450713709927;;;9.125;100.0
15558;BME280;7880;50.110;9.372;2023-04-01T15:35:19;9.161239592783385;;;9.062;100.0
15558;BME280;7880;50.110;9.372;2023-04-01T15:40:19;9.171324040280888;;;9.062;100.0
15558;BME280;7880;50.110;9.372;2023-04-01T15:44:03;9.181408488942543;;;9.062;100.0
15558;BME280;7880;50.110;9.372;2023-04-01T15:49:13;9.231830749713117;;;9.125;100.0
15558;BME280;7880;50.110;9.372;2023-04-01T15:54:24;9.156197369471192;;;9.062;100.0
15558;BME280;7880;50.110;9.372;2023-04-01T15:59:23;9.055352964345365;;;9.0;100.0
15558;BME280;7880;50.110;9.372;2023-04-01T16:04:37;9.090648492897163;;;8.937;100.0
15558;BME280;7880;50.110;9.372;2023-04-01T16:09:36;8.939382042369107;;;8.875;100.0
15558;BME280;7880;50.110;9.372;2023-04-01T16:14:38;9.009973020019242;;;8.812;100.0
15558;BME280;7880;50.110;9.372;2023-04-01T16:19:47;8.904086574935354;;;8.812;100.0
15558;BME280;7880;50.110;9.372;2023-04-01T16:24:44;8.924255411722697;;;8.812;100.0
15558;BME280;7880;50.110;9.372;2023-04-01T16:29:47;8.919213202089304;;;8.812;100.0
15558;BME280;7880;50.110;9.372;2023-04-01T16:35:04;8.924255411722697;;;8.812;100.0
15558;BME280;7880;50.110;9.372;2023-04-01T16:40:13;8.959550887305522;;;8.812;100.0
15558;BME280;7880;50.110;9.372;2023-04-01T16:45:17;8.949466464255238;;;8.812;100.0
15558;BME280;7880;50.110;9.372;2023-04-01T16:50:15;8.919213202089304;;;8.812;100.0
15558;BME280;7880;50.110;9.372;2023-04-01T16:55:15;8.919213202089304;;;8.812;100.0
15558;BME280;7880;50.110;9.372;2023-04-01T17:00:19;8.959550887305522;;;8.812;100.0
15558;BME280;7880;50.110;9.372;2023-04-01T17:05:17;8.96963531151996;;;8.875;100.0
15558;BME280;7880;50.110;9.372;2023-04-01T17:10:31;8.964593099267223;;;8.875;100.0
15558;BME280;7880;50.110;9.372;2023-04-01T17:15:33;8.899044366466114;;;8.812;100.0
15558;BME280;7880;50.110;9.372;2023-04-01T17:20:42;8.813326867017896;;;8.75;100.0
15558;BME280;7880;50.110;9.372;2023-04-01T17:25:48;8.798200258199358;;;8.687;100.0
15558;BME280;7880;50.110;9.372;2023-04-01T17:30:47;8.808284663787344;;;8.687;100.0
15558;BME280;7880;50.110;9.372;2023-04-01T17:35:54;8.76794704842032;;;8.687;100.0
15558;BME280;7880;50.110;9.372;2023-04-01T17:41:00;8.762904847809114;;;8.625;100.0
15558;BME280;7880;50.110;9.372;2023-04-01T17:46:07;8.712482857704163;;;8.625;100.0
15558;BME280;7880;50.110;9.372;2023-04-01T17:51:11;8.823411274352111;;;8.687;100.0
15558;BME280;7880;50.110;9.372;2023-04-01T17:56:11;8.692314069811255;;;8.562;100.0
15558;BME280;7880;50.110;9.372;2023-04-01T18:01:17;8.707440660294377;;;8.562;100.0
15558;BME280;7880;50.110;9.372;2023-04-01T18:06:15;8.626765541319037;;;8.562;100.0
15558;BME280;7880;50.110;9.372;2023-04-01T18:11:25;8.596512390911812;;;8.5;100.0
15558;BME280;7880;50.110;9.372;2023-04-01T18:16:33;8.571301440242678;;;8.5;100.0
15558;BME280;7880;50.110;9.372;2023-04-01T18:21:33;8.12254773574532;;;8.062;100.0
15558;BME280;7880;50.110;9.372;2023-04-01T18:26:44;7.956156498589553;;;7.875;100.0
15558;BME280;7880;50.110;9.372;2023-04-01T18:31:39;7.648585652193288;;;7.625;100.0
15558;BME280;7880;50.110;9.372;2023-04-01T18:36:46;7.628417109936708;;;7.437;100.0
15558;BME280;7880;50.110;9.372;2023-04-01T18:41:53;7.59312217219267;;;7.437;100.0
15558;BME280;7880;50.110;9.372;2023-04-01T18:46:57;7.59312217219267;;;7.375;100.0
15558;BME280;7880;50.110;9.372;2023-04-01T18:51:58;7.688922750676284;;;7.437;100.0
15558;BME280;7880;50.110;9.372;2023-04-01T18:57:02;7.456984688766534;;;7.312;100.0
15558;BME280;7880;50.110;9.372;2023-04-01T19:02:18;7.709091306902701;;;7.375;100.0
15558;BME280;7880;50.110;9.372;2023-04-01T19:07:43;7.69396488929633;;;7.375;100.0
15558;BME280;7880;50.110;9.372;2023-04-01T19:12:32;7.719175586762139;;;7.5;100.0
15558;BME280;7880;50.110;9.372;2023-04-01T19:17:41;7.779681290365988;;;7.5;100.0
15558;BME280;7880;50.110;9.372;2023-04-01T19:22:46;7.799849867547164;;;7.562;100.0
15558;BME280;7880;50.110;9.372;2023-04-01T19:28:02;7.668754199106479;;;7.437;100.0
15558;BME280;7880;50.110;9.372;2023-04-01T19:32:54;7.794807722815312;;;7.625;100.0
15558;BME280;7880;50.110;9.372;2023-04-01T19:37:57;7.98640942722559;;;7.812;100.0
15558;BME280;7880;50.110;9.372;2023-04-01T19:43:02;7.951114344835514;;;7.812;100.0
15558;BME280;7880;50.110;9.372;2023-04-01T19:48:08;8.016662366339006;;;7.937;100.0
15558;BME280;7880;50.110;9.372;2023-04-01T19:53:14;8.036830998235382;;;8.0;100.0
15558;BME280;7880;50.110;9.372;2023-04-01T19:58:16;8.051957475213566;;;8.0;100.0
15558;BME280;7880;50.110;9.372;2023-04-01T20:03:25;8.016662366339006;;;7.937;100.0
15558;BME280;7880;50.110;9.372;2023-04-01T20:08:33;8.041873156937072;;;7.937;100.0
15558;BME280;7880;50.110;9.372;2023-04-01T20:13:28;8.142716392088914;;;8.0;100.0
15558;BME280;7880;50.110;9.372;2023-04-01T20:18:40;8.077168275997973;;;8.0;100.0
15558;BME280;7880;50.110;9.372;2023-04-01T20:23:43;8.0469153159298;;;8.0;100.0
15558;BME280;7880;50.110;9.372;2023-04-01T20:28:43;8.092294759961078;;;8.0;100.0
15558;BME280;7880;50.110;9.372;2023-04-01T20:35:08;8.041873156937072;;;8.0;100.0
15558;BME280;7880;50.110;9.372;2023-04-01T20:40:34;8.006578052137048;;;7.937;100.0
15558;BME280;7880;50.110;9.372;2023-04-01T20:45:24;7.981367271725321;;;7.875;100.0
15558;BME280;7880;50.110;9.372;2023-04-01T20:50:19;7.930945732729742;;;7.812;100.0
15558;BME280;7880;50.110;9.372;2023-04-01T20:55:28;7.895650672749616;;;7.812;100.0
15558;BME280;7880;50.110;9.372;2023-04-01T21:00:27;7.981367271725321;;;7.875;100.0
15558;BME280;7880;50.110;9.372;2023-04-01T21:05:42;7.941030038200552;;;7.875;100.0
15558;BME280;7880;50.110;9.372;2023-04-01T21:10:36;7.951114344835514;;;7.875;100.0
15558;BME280;7880;50.110;9.372;2023-04-01T21:15:39;7.951114344835514;;;7.812;100.0
15558;BME280;7880;50.110;9.372;2023-04-01T21:20:49;7.946072191372513;;;7.812;100.0
15558;BME280;7880;50.110;9.372;2023-04-01T21:25:52;7.941030038200552;;;7.812;100.0
15558;BME280;7880;50.110;9.372;2023-04-01T21:31:08;7.966240806970745;;;7.875;100.0
15558;BME280;7880;50.110;9.372;2023-04-01T21:35:59;7.8704399243521035;;;7.75;100.0
15558;BME280;7880;50.110;9.372;2023-04-01T21:41:06;7.910777125280584;;;7.812;100.0
15558;BME280;7880;50.110;9.372;2023-04-01T21:46:23;7.951114344835514;;;7.812;100.0
15558;BME280;7880;50.110;9.372;2023-04-01T21:51:27;7.860355627030367;;;7.812;100.0
15558;BME280;7880;50.110;9.372;2023-04-01T21:57:35;7.820018449384952;;;7.687;100.0
15558;BME280;7880;50.110;9.372;2023-04-01T22:02:45;7.845229183230549;;;7.687;100.0
15558;BME280;7880;50.110;9.372;2023-04-01T22:07:38;7.910777125280584;;;7.75;100.0
15558;BME280;7880;50.110;9.372;2023-04-01T22:12:43;7.845229183230549;;;7.75;100.0
15558;BME280;7880;50.110;9.372;2023-04-01T22:17:59;7.895650672749616;;;7.75;100.0
15558;BME280;7880;50.110;9.372;2023-04-01T22:22:58;7.96119865263463;;;7.812;100.0
15558;BME280;7880;50.110;9.372;2023-04-01T22:28:07;7.8704399243521035;;;7.75;100.0
15558;BME280;7880;50.110;9.372;2023-04-01T22:33:05;7.845229183230549;;;7.75;100.0
15558;BME280;7880;50.110;9.372;2023-04-01T22:38:16;7.825060595571995;;;7.75;100.0
15558;BME280;7880;50.110;9.372;2023-04-01T22:43:11;7.895650672749616;;;7.75;100.0
15558;BME280;7880;50.110;9.372;2023-04-01T22:48:17;7.890608522488037;;;7.75;100.0
15558;BME280;7880;50.110;9.372;2023-04-01T22:53:23;7.920861428423086;;;7.75;100.0
15558;BME280;7880;50.110;9.372;2023-04-01T22:58:25;7.835144888819196;;;7.75;100.0
15558;BME280;7880;50.110;9.372;2023-04-01T23:03:28;7.809934157883982;;;7.687;100.0
15558;BME280;7880;50.110;9.372;2023-04-01T23:08:49;7.845229183230549;;;7.75;100.0
15558;BME280;7880;50.110;9.372;2023-04-01T23:13:43;7.76959700352163;;;7.687;100.0
15558;BME280;7880;50.110;9.372;2023-04-01T23:18:46;7.759512717841426;;;7.625;100.0
15558;BME280;7880;50.110;9.372;2023-04-01T23:23:51;7.76959700352163;;;7.687;100.0
15558;BME280;7880;50.110;9.372;2023-04-01T23:28:56;7.784723434224725;;;7.687;100.0
15558;BME280;7880;50.110;9.372;2023-04-01T23:33:55;7.76959700352163;;;7.625;100.0
15558;BME280;7880;50.110;9.372;2023-04-01T23:39:05;7.860355627030367;;;7.75;100.0
15558;BME280;7880;50.110;9.372;2023-04-01T23:44:05;7.76959700352163;;;7.625;100.0
15558;BME280;7880;50.110;9.372;2023-04-01T23:49:20;7.729259867785731;;;7.625;100.0
15558;BME280;7880;50.110;9.372;2023-04-01T23:54:18;7.779681290365988;;;7.625;100.0
15558;BME280;7880;50.110;9.372;2023-04-01T23:59:23;7.69396488929633;;;7.625;100.0
